createdAt,value
2022-10-03T00:00:30.406Z,13.22
2022-10-03T00:01:30.531Z,13.22
2022-10-03T00:02:30.498Z,13.23
2022-10-03T00:03:30.374Z,13.23
2022-10-03T00:04:30.364Z,13.25
2022-10-03T00:05:30.370Z,13.23
2022-10-03T00:06:30.350Z,13.27
2022-10-03T00:07:30.343Z,13.23
2022-10-03T00:08:30.332Z,13.22
2022-10-03T00:09:30.330Z,13.22
2022-10-03T00:10:30.298Z,13.16
2022-10-03T00:11:30.297Z,13.22
2022-10-03T00:12:30.287Z,13.25
2022-10-03T00:13:30.277Z,13.27
2022-10-03T00:14:30.279Z,13.27
2022-10-03T00:15:30.254Z,13.28
2022-10-03T00:16:30.275Z,13.27
2022-10-03T00:17:30.239Z,13.33
2022-10-03T00:18:30.230Z,13.31
2022-10-03T00:19:30.211Z,13.30
2022-10-03T00:20:30.191Z,13.28
2022-10-03T00:21:30.186Z,13.30
2022-10-03T00:22:30.178Z,13.22
2022-10-03T00:23:30.190Z,13.23
2022-10-03T00:24:30.156Z,13.19
2022-10-03T00:25:30.153Z,13.25
2022-10-03T00:26:30.131Z,13.22
2022-10-03T00:27:30.122Z,13.23
2022-10-03T00:28:30.185Z,13.23
2022-10-03T00:29:30.095Z,13.27
2022-10-03T00:30:30.088Z,13.27
2022-10-03T00:31:30.228Z,13.23
2022-10-03T00:32:30.069Z,13.20
2022-10-03T00:33:30.061Z,13.23
2022-10-03T00:34:30.061Z,13.33
2022-10-03T00:35:30.044Z,13.23
2022-10-03T00:36:30.029Z,13.23
2022-10-03T00:37:30.027Z,13.20
2022-10-03T00:38:29.995Z,13.20
2022-10-03T00:39:30.002Z,13.33
2022-10-03T00:40:29.985Z,13.37
2022-10-03T00:41:29.966Z,13.33
2022-10-03T00:42:29.967Z,13.33
2022-10-03T00:43:29.945Z,13.41
2022-10-03T00:44:29.930Z,13.42
2022-10-03T00:45:29.961Z,13.44
2022-10-03T00:46:29.990Z,13.35
2022-10-03T00:47:29.913Z,13.38
2022-10-03T00:48:29.899Z,13.37
2022-10-03T00:49:29.885Z,13.39
2022-10-03T00:50:29.880Z,13.37
2022-10-03T00:51:29.891Z,13.38
2022-10-03T00:52:29.852Z,13.31
2022-10-03T00:53:29.841Z,13.35
2022-10-03T00:54:29.822Z,13.38
2022-10-03T00:55:29.812Z,13.46
2022-10-03T00:56:29.801Z,13.46
2022-10-03T00:57:29.815Z,13.52
2022-10-03T00:58:29.781Z,13.50
2022-10-03T00:59:29.771Z,13.47
2022-10-03T01:00:29.759Z,13.50
2022-10-03T01:01:29.745Z,13.46
2022-10-03T01:02:29.773Z,13.44
2022-10-03T01:03:29.758Z,13.42
2022-10-03T01:04:29.713Z,13.30
2022-10-03T01:05:29.730Z,13.33
2022-10-03T01:06:29.706Z,13.28
2022-10-03T01:07:29.689Z,13.30
2022-10-03T01:08:29.678Z,13.35
2022-10-03T01:09:29.666Z,13.37
2022-10-03T01:10:29.669Z,13.31
2022-10-03T01:11:29.664Z,13.33
2022-10-03T01:12:29.669Z,13.38
2022-10-03T01:13:29.653Z,13.42
2022-10-03T01:14:29.609Z,13.38
2022-10-03T01:15:29.599Z,13.30
2022-10-03T01:16:29.641Z,13.33
2022-10-03T01:17:29.651Z,13.33
2022-10-03T01:18:29.595Z,13.37
2022-10-03T01:19:29.560Z,13.38
2022-10-03T01:20:29.547Z,13.42
2022-10-03T01:21:29.541Z,13.39
2022-10-03T01:22:29.565Z,13.37
2022-10-03T01:23:29.549Z,13.37
2022-10-03T01:24:29.524Z,13.31
2022-10-03T01:25:29.490Z,13.38
2022-10-03T01:26:29.583Z,13.27
2022-10-03T01:27:29.460Z,13.31
2022-10-03T01:28:29.552Z,13.31
2022-10-03T01:29:29.473Z,13.23
2022-10-03T01:30:29.438Z,13.23
2022-10-03T01:31:29.480Z,13.22
2022-10-03T01:32:29.416Z,13.25
2022-10-03T01:33:29.433Z,13.22
2022-10-03T01:34:29.389Z,13.25
2022-10-03T01:35:29.401Z,13.25
2022-10-03T01:36:29.372Z,13.35
2022-10-03T01:37:29.354Z,13.35
2022-10-03T01:38:29.362Z,13.38
2022-10-03T01:39:29.353Z,13.41
2022-10-03T01:40:29.316Z,13.41
2022-10-03T01:41:29.308Z,13.46
2022-10-03T01:42:29.314Z,13.37
2022-10-03T01:43:29.286Z,13.44
2022-10-03T01:44:29.284Z,13.53
2022-10-03T01:45:29.293Z,13.53
2022-10-03T01:46:29.312Z,13.54
2022-10-03T01:47:29.247Z,13.53
2022-10-03T01:48:29.253Z,13.49
2022-10-03T01:49:29.221Z,13.50
2022-10-03T01:50:29.243Z,13.47
2022-10-03T01:51:29.202Z,13.53
2022-10-03T01:52:29.238Z,13.44
2022-10-03T01:53:29.191Z,13.53
2022-10-03T01:54:29.182Z,13.50
2022-10-03T01:55:29.192Z,13.52
2022-10-03T01:56:29.148Z,13.53
2022-10-03T01:57:29.144Z,13.50
2022-10-03T01:58:29.135Z,13.56
2022-10-03T01:59:29.129Z,13.49
2022-10-03T02:00:29.122Z,13.44
2022-10-03T02:01:29.128Z,13.50
2022-10-03T02:02:29.153Z,13.44
2022-10-03T02:03:29.071Z,13.50
2022-10-03T02:04:29.059Z,13.46
2022-10-03T02:05:29.046Z,13.46
2022-10-03T02:06:29.036Z,13.50
2022-10-03T02:07:29.056Z,13.52
2022-10-03T02:08:29.017Z,13.53
2022-10-03T02:09:29.005Z,13.53
2022-10-03T02:10:29.009Z,13.52
2022-10-03T02:11:28.982Z,13.56
2022-10-03T02:12:29.010Z,13.56
2022-10-03T02:13:28.961Z,13.56
2022-10-03T02:14:28.951Z,13.65
2022-10-03T02:15:28.949Z,13.56
2022-10-03T02:16:29.003Z,13.54
2022-10-03T02:17:28.951Z,13.46
2022-10-03T02:18:28.910Z,13.37
2022-10-03T02:19:28.897Z,13.38
2022-10-03T02:20:28.887Z,13.41
2022-10-03T02:21:28.890Z,13.39
2022-10-03T02:22:28.871Z,13.37
2022-10-03T02:23:28.884Z,13.39
2022-10-03T02:24:28.841Z,13.31
2022-10-03T02:25:28.832Z,13.41
2022-10-03T02:26:28.846Z,13.39
2022-10-03T02:27:28.817Z,13.42
2022-10-03T02:28:28.825Z,13.46
2022-10-03T02:29:28.819Z,13.46
2022-10-03T02:30:28.776Z,13.53
2022-10-03T02:31:28.869Z,13.47
2022-10-03T02:32:28.766Z,13.49
2022-10-03T02:33:28.743Z,13.50
2022-10-03T02:34:28.740Z,13.49
2022-10-03T02:35:28.744Z,13.54
2022-10-03T02:36:28.709Z,13.41
2022-10-03T02:37:28.716Z,13.41
2022-10-03T02:38:28.696Z,13.44
2022-10-03T02:39:28.683Z,13.42
2022-10-03T02:40:28.667Z,13.37
2022-10-03T02:41:28.682Z,13.41
2022-10-03T02:42:28.661Z,13.44
2022-10-03T02:43:28.633Z,13.44
2022-10-03T02:44:28.635Z,13.46
2022-10-03T02:45:28.773Z,13.39
2022-10-03T02:46:28.633Z,13.49
2022-10-03T02:47:28.595Z,13.47
2022-10-03T02:48:32.604Z,13.52
2022-10-03T02:49:28.573Z,13.47
2022-10-03T02:50:28.583Z,13.49
2022-10-03T02:51:28.548Z,13.50
2022-10-03T02:52:28.538Z,13.42
2022-10-03T02:53:28.526Z,13.56
2022-10-03T02:54:28.517Z,13.54
2022-10-03T02:55:28.507Z,13.57
2022-10-03T02:56:28.546Z,13.50
2022-10-03T02:57:28.487Z,13.50
2022-10-03T02:58:28.497Z,13.54
2022-10-03T02:59:28.466Z,13.53
2022-10-03T03:00:28.454Z,13.54
2022-10-03T03:01:28.487Z,13.49
2022-10-03T03:02:28.526Z,13.44
2022-10-03T03:03:28.423Z,13.49
2022-10-03T03:04:28.410Z,13.53
2022-10-03T03:05:28.409Z,13.53
2022-10-03T03:06:28.385Z,13.59
2022-10-03T03:07:28.378Z,13.59
2022-10-03T03:08:28.404Z,13.54
2022-10-03T03:09:28.362Z,13.56
2022-10-03T03:10:28.348Z,13.52
2022-10-03T03:11:28.337Z,13.47
2022-10-03T03:12:28.326Z,13.62
2022-10-03T03:13:28.351Z,13.60
2022-10-03T03:14:28.319Z,13.52
2022-10-03T03:15:28.295Z,13.57
2022-10-03T03:16:28.328Z,13.57
2022-10-03T03:17:28.263Z,13.54
2022-10-03T03:18:28.285Z,13.63
2022-10-03T03:19:28.248Z,13.59
2022-10-03T03:20:28.269Z,13.63
2022-10-03T03:21:28.234Z,13.65
2022-10-03T03:22:28.211Z,13.70
2022-10-03T03:23:28.197Z,13.60
2022-10-03T03:24:28.185Z,13.57
2022-10-03T03:25:28.173Z,13.54
2022-10-03T03:26:28.204Z,13.57
2022-10-03T03:27:28.153Z,13.56
2022-10-03T03:28:28.184Z,13.56
2022-10-03T03:29:28.137Z,13.49
2022-10-03T03:30:28.173Z,13.50
2022-10-03T03:31:28.176Z,13.50
2022-10-03T03:32:28.104Z,13.50
2022-10-03T03:33:28.092Z,13.53
2022-10-03T03:34:28.084Z,13.44
2022-10-03T03:35:28.096Z,13.46
2022-10-03T03:36:28.057Z,13.56
2022-10-03T03:37:28.052Z,13.59
2022-10-03T03:38:28.042Z,13.57
2022-10-03T03:39:28.053Z,13.50
2022-10-03T03:40:28.043Z,13.52
2022-10-03T03:41:28.007Z,13.52
2022-10-03T03:42:28.000Z,13.56
2022-10-03T03:43:27.982Z,13.57
2022-10-03T03:44:28.003Z,13.54
2022-10-03T03:45:27.991Z,13.60
2022-10-03T03:46:28.003Z,13.50
2022-10-03T03:47:27.945Z,13.49
2022-10-03T03:48:27.919Z,13.49
2022-10-03T03:49:27.911Z,13.46
2022-10-03T03:50:27.902Z,13.52
2022-10-03T03:51:27.948Z,13.53
2022-10-03T03:52:27.909Z,13.54
2022-10-03T03:53:27.905Z,13.56
2022-10-03T03:54:27.876Z,13.47
2022-10-03T03:55:27.855Z,13.50
2022-10-03T03:56:27.836Z,13.54
2022-10-03T03:57:27.851Z,13.50
2022-10-03T03:58:27.833Z,13.56
2022-10-03T03:59:27.804Z,13.65
2022-10-03T04:00:27.792Z,13.54
2022-10-03T04:01:27.835Z,13.60
2022-10-03T04:02:27.945Z,13.63
2022-10-03T04:03:27.761Z,13.60
2022-10-03T04:04:27.747Z,13.67
2022-10-03T04:05:27.863Z,13.63
2022-10-03T04:06:27.739Z,13.54
2022-10-03T04:07:27.715Z,13.54
2022-10-03T04:08:27.709Z,13.60
2022-10-03T04:09:27.705Z,13.60
2022-10-03T04:10:27.684Z,13.54
2022-10-03T04:11:27.710Z,13.53
2022-10-03T04:12:27.688Z,13.56
2022-10-03T04:13:27.649Z,13.53
2022-10-03T04:14:27.665Z,13.47
2022-10-03T04:15:27.643Z,13.50
2022-10-03T04:16:27.647Z,13.52
2022-10-03T04:17:27.632Z,13.50
2022-10-03T04:18:27.623Z,13.53
2022-10-03T04:19:27.612Z,13.50
2022-10-03T04:20:27.582Z,13.53
2022-10-03T04:21:27.577Z,13.52
2022-10-03T04:22:27.561Z,13.52
2022-10-03T04:23:27.549Z,13.56
2022-10-03T04:24:27.573Z,13.52
2022-10-03T04:25:27.580Z,13.54
2022-10-03T04:26:27.534Z,13.60
2022-10-03T04:27:27.500Z,13.52
2022-10-03T04:28:27.539Z,13.54
2022-10-03T04:29:27.481Z,13.50
2022-10-03T04:30:27.510Z,13.52
2022-10-03T04:31:27.552Z,13.47
2022-10-03T04:32:27.451Z,13.47
2022-10-03T04:33:27.433Z,13.49
2022-10-03T04:34:27.463Z,13.50
2022-10-03T04:35:27.411Z,13.49
2022-10-03T04:36:27.398Z,13.54
2022-10-03T04:37:27.405Z,13.53
2022-10-03T04:38:27.391Z,13.52
2022-10-03T04:39:27.401Z,13.57
2022-10-03T04:40:27.355Z,13.53
2022-10-03T04:41:27.348Z,13.52
2022-10-03T04:42:27.335Z,13.56
2022-10-03T04:43:27.325Z,13.53
2022-10-03T04:44:27.309Z,13.53
2022-10-03T04:45:27.365Z,13.46
2022-10-03T04:46:27.298Z,13.52
2022-10-03T04:47:27.280Z,13.46
2022-10-03T04:48:27.302Z,13.47
2022-10-03T04:49:27.258Z,13.47
2022-10-03T04:50:27.274Z,13.49
2022-10-03T04:51:27.244Z,13.52
2022-10-03T04:52:27.225Z,13.52
2022-10-03T04:53:27.258Z,13.47
2022-10-03T04:54:27.205Z,13.46
2022-10-03T04:55:27.202Z,13.28
2022-10-03T04:56:27.182Z,13.31
2022-10-03T04:57:27.171Z,13.33
2022-10-03T04:58:27.169Z,13.33
2022-10-03T04:59:27.176Z,13.31
2022-10-03T05:00:27.145Z,13.42
2022-10-03T05:01:27.198Z,13.41
2022-10-03T05:02:27.163Z,13.46
2022-10-03T05:03:27.114Z,13.44
2022-10-03T05:04:27.134Z,13.49
2022-10-03T05:05:27.090Z,13.46
2022-10-03T05:06:27.094Z,13.46
2022-10-03T05:07:27.756Z,13.47
2022-10-03T05:08:27.048Z,13.39
2022-10-03T05:09:27.045Z,13.44
2022-10-03T05:10:27.081Z,13.52
2022-10-03T05:11:27.018Z,13.50
2022-10-03T05:12:27.008Z,13.52
2022-10-03T05:13:27.001Z,13.47
2022-10-03T05:14:26.983Z,13.56
2022-10-03T05:15:26.976Z,13.54
2022-10-03T05:16:27.070Z,13.57
2022-10-03T05:17:27.042Z,13.59
2022-10-03T05:18:27.294Z,13.56
2022-10-03T05:19:26.964Z,13.57
2022-10-03T05:20:26.943Z,13.56
2022-10-03T05:21:26.946Z,13.56
2022-10-03T05:22:26.918Z,13.53
2022-10-03T05:23:26.890Z,13.68
2022-10-03T05:24:26.884Z,13.57
2022-10-03T05:25:26.874Z,13.59
2022-10-03T05:26:46.074Z,13.57
2022-10-03T05:27:27.867Z,13.63
2022-10-03T05:28:26.976Z,13.57
2022-10-03T05:29:26.824Z,13.65
2022-10-03T05:30:26.825Z,13.57
2022-10-03T05:31:26.845Z,13.60
2022-10-03T05:32:26.832Z,13.59
2022-10-03T05:33:26.779Z,13.53
2022-10-03T05:34:26.774Z,13.60
2022-10-03T05:35:26.763Z,13.54
2022-10-03T05:36:26.752Z,13.52
2022-10-03T05:37:26.772Z,13.62
2022-10-03T05:38:26.753Z,13.54
2022-10-03T05:39:26.749Z,13.54
2022-10-03T05:40:26.699Z,13.62
2022-10-03T05:41:26.707Z,13.54
2022-10-03T05:42:26.687Z,13.59
2022-10-03T05:43:26.697Z,13.60
2022-10-03T05:44:26.726Z,13.74
2022-10-03T05:45:26.658Z,13.71
2022-10-03T05:46:26.660Z,13.63
2022-10-03T05:47:26.628Z,13.71
2022-10-03T05:48:26.643Z,13.65
2022-10-03T05:49:26.600Z,13.67
2022-10-03T05:50:26.594Z,13.60
2022-10-03T05:51:26.617Z,13.67
2022-10-03T05:52:26.578Z,13.68
2022-10-03T05:53:26.560Z,13.72
2022-10-03T05:54:26.591Z,13.75
2022-10-03T05:55:26.539Z,13.67
2022-10-03T05:56:26.526Z,13.81
2022-10-03T05:57:26.523Z,13.79
2022-10-03T05:58:26.531Z,13.83
2022-10-03T05:59:26.493Z,13.86
2022-10-03T06:00:26.525Z,13.79
2022-10-03T06:01:26.472Z,13.89
2022-10-03T06:02:26.580Z,13.85
2022-10-03T06:03:26.500Z,13.87
2022-10-03T06:04:26.471Z,13.79
2022-10-03T06:05:26.431Z,13.83
2022-10-03T06:06:26.421Z,13.86
2022-10-03T06:07:26.406Z,13.81
2022-10-03T06:08:26.414Z,13.89
2022-10-03T06:09:26.396Z,13.92
2022-10-03T06:10:26.438Z,13.90
2022-10-03T06:11:26.369Z,13.92
2022-10-03T06:12:26.360Z,13.97
2022-10-03T06:13:26.348Z,13.99
2022-10-03T06:14:26.333Z,13.97
2022-10-03T06:15:26.318Z,14.00
2022-10-03T06:16:26.413Z,14.07
2022-10-03T06:17:26.307Z,14.05
2022-10-03T06:18:26.289Z,14.11
2022-10-03T06:19:26.275Z,14.03
2022-10-03T06:20:26.283Z,14.05
2022-10-03T06:21:26.259Z,14.12
2022-10-03T06:22:26.263Z,14.04
2022-10-03T06:23:26.229Z,14.07
2022-10-03T06:24:26.227Z,13.93
2022-10-03T06:25:26.238Z,14.05
2022-10-03T06:26:26.278Z,14.08
2022-10-03T06:27:26.189Z,14.11
2022-10-03T06:28:26.265Z,14.08
2022-10-03T06:29:26.163Z,14.11
2022-10-03T06:30:26.228Z,14.04
2022-10-03T06:31:29.685Z,14.10
2022-10-03T06:32:27.139Z,14.11
2022-10-03T06:33:26.126Z,14.07
2022-10-03T06:34:26.123Z,14.10
2022-10-03T06:35:26.101Z,14.05
2022-10-03T06:36:26.086Z,14.07
2022-10-03T06:37:26.124Z,14.11
2022-10-03T06:38:26.072Z,14.10
2022-10-03T06:39:26.073Z,14.03
2022-10-03T06:40:26.105Z,14.04
2022-10-03T06:41:26.044Z,14.17
2022-10-03T06:42:26.073Z,14.15
2022-10-03T06:43:26.014Z,14.14
2022-10-03T06:44:26.006Z,14.14
2022-10-03T06:45:30.705Z,14.10
2022-10-03T06:46:27.159Z,14.22
2022-10-03T06:47:25.980Z,14.18
2022-10-03T06:48:25.979Z,14.23
2022-10-03T06:49:25.948Z,14.25
2022-10-03T06:50:25.989Z,14.18
2022-10-03T06:51:30.381Z,14.18
2022-10-03T06:52:25.916Z,14.22
2022-10-03T06:53:25.936Z,14.29
2022-10-03T06:54:25.944Z,14.30
2022-10-03T06:55:25.909Z,14.32
2022-10-03T06:56:25.879Z,14.30
2022-10-03T06:57:25.863Z,14.30
2022-10-03T06:58:25.974Z,14.40
2022-10-03T06:59:25.846Z,14.37
2022-10-03T07:00:25.866Z,14.41
2022-10-03T07:01:25.879Z,14.41
2022-10-03T07:02:25.885Z,14.54
2022-10-03T07:03:25.803Z,14.55
2022-10-03T07:04:25.810Z,14.59
2022-10-03T07:05:25.779Z,14.66
2022-10-03T07:06:25.770Z,14.69
2022-10-03T07:07:25.754Z,14.78
2022-10-03T07:08:25.745Z,14.91
2022-10-03T07:09:25.748Z,14.81
2022-10-03T07:10:25.836Z,14.81
2022-10-03T07:11:25.728Z,14.85
2022-10-03T07:12:25.720Z,14.82
2022-10-03T07:13:25.698Z,14.99
2022-10-03T07:14:25.694Z,15.02
2022-10-03T07:15:43.650Z,14.97
2022-10-03T07:16:27.692Z,14.94
2022-10-03T07:17:25.675Z,15.09
2022-10-03T07:18:25.646Z,15.11
2022-10-03T07:19:25.630Z,15.11
2022-10-03T07:20:25.671Z,15.15
2022-10-03T07:21:25.602Z,15.11
2022-10-03T07:22:25.622Z,15.17
2022-10-03T07:23:25.586Z,15.10
2022-10-03T07:24:25.574Z,15.11
2022-10-03T07:25:25.556Z,15.21
2022-10-03T07:26:25.556Z,15.09
2022-10-03T07:27:25.581Z,15.11
2022-10-03T07:28:25.592Z,15.10
2022-10-03T07:29:25.517Z,15.03
2022-10-03T07:30:25.525Z,15.06
2022-10-03T07:31:25.613Z,14.96
2022-10-03T07:32:25.492Z,15.02
2022-10-03T07:33:25.478Z,15.04
2022-10-03T07:34:25.465Z,15.03
2022-10-03T07:35:25.452Z,15.25
2022-10-03T07:36:25.443Z,15.15
2022-10-03T07:37:25.494Z,15.28
2022-10-03T07:38:25.424Z,15.42
2022-10-03T07:39:25.407Z,15.47
2022-10-03T07:40:25.398Z,15.57
2022-10-03T07:41:25.390Z,15.65
2022-10-03T07:42:25.407Z,15.64
2022-10-03T07:43:25.386Z,15.79
2022-10-03T07:44:25.356Z,15.79
2022-10-03T07:45:25.377Z,15.90
2022-10-03T07:46:25.491Z,15.91
2022-10-03T07:47:25.417Z,15.92
2022-10-03T07:48:25.326Z,15.92
2022-10-03T07:49:25.313Z,15.94
2022-10-03T07:50:25.332Z,16.01
2022-10-03T07:51:25.323Z,15.90
2022-10-03T07:52:25.329Z,15.94
2022-10-03T07:53:25.267Z,15.84
2022-10-03T07:54:25.247Z,15.88
2022-10-03T07:55:25.240Z,15.91
2022-10-03T07:56:25.223Z,15.79
2022-10-03T07:57:25.251Z,15.83
2022-10-03T07:58:25.210Z,15.77
2022-10-03T07:59:25.193Z,15.67
2022-10-03T08:00:25.186Z,15.62
2022-10-03T08:01:25.178Z,15.59
2022-10-03T08:02:25.266Z,15.57
2022-10-03T08:03:25.208Z,15.52
2022-10-03T08:04:25.142Z,15.51
2022-10-03T08:05:25.139Z,15.55
2022-10-03T08:06:25.116Z,15.43
2022-10-03T08:07:25.145Z,15.39
2022-10-03T08:08:25.101Z,15.37
2022-10-03T08:09:25.120Z,15.43
2022-10-03T08:10:25.094Z,15.46
2022-10-03T08:11:25.073Z,15.42
2022-10-03T08:12:25.077Z,15.44
2022-10-03T08:13:25.043Z,15.44
2022-10-03T08:14:25.039Z,15.43
2022-10-03T08:15:25.018Z,15.42
2022-10-03T08:16:25.099Z,15.51
2022-10-03T08:17:25.361Z,15.58
2022-10-03T08:18:25.016Z,15.57
2022-10-03T08:19:25.005Z,15.72
2022-10-03T08:20:24.964Z,15.82
2022-10-03T08:21:24.966Z,15.88
2022-10-03T08:22:24.963Z,15.92
2022-10-03T08:23:24.998Z,16.16
2022-10-03T08:24:25.032Z,16.33
2022-10-03T08:25:24.927Z,16.42
2022-10-03T08:26:25.782Z,16.54
2022-10-03T08:27:24.891Z,16.61
2022-10-03T08:28:24.922Z,16.75
2022-10-03T08:29:24.865Z,16.86
2022-10-03T08:30:24.891Z,16.94
2022-10-03T08:31:24.998Z,17.04
2022-10-03T08:32:24.843Z,16.96
2022-10-03T08:33:24.832Z,16.89
2022-10-03T08:34:24.929Z,16.86
2022-10-03T08:35:24.820Z,16.81
2022-10-03T08:36:24.833Z,16.69
2022-10-03T08:37:24.805Z,16.65
2022-10-03T08:38:27.924Z,16.57
2022-10-03T08:39:24.761Z,16.42
2022-10-03T08:40:24.757Z,16.39
2022-10-03T08:41:24.754Z,16.46
2022-10-03T08:42:24.759Z,16.49
2022-10-03T08:43:24.746Z,16.43
2022-10-03T08:44:29.556Z,16.51
2022-10-03T08:45:24.700Z,16.60
2022-10-03T08:46:24.747Z,16.64
2022-10-03T08:47:24.707Z,16.66
2022-10-03T08:48:24.669Z,16.78
2022-10-03T08:49:24.652Z,17.06
2022-10-03T08:50:24.661Z,17.11
2022-10-03T08:51:24.628Z,17.87
2022-10-03T08:52:24.654Z,18.40
2022-10-03T08:53:24.614Z,18.78
2022-10-03T08:54:24.597Z,18.95
2022-10-03T08:55:24.595Z,19.99
2022-10-03T08:56:25.329Z,21.35
2022-10-03T08:57:24.568Z,22.53
2022-10-03T08:58:24.597Z,22.36
2022-10-03T08:59:24.589Z,22.57
2022-10-03T09:00:24.540Z,22.14
2022-10-03T09:01:24.573Z,22.50
2022-10-03T09:02:24.644Z,22.72
2022-10-03T09:03:43.033Z,22.85
2022-10-03T09:04:25.505Z,22.35
2022-10-03T09:05:24.483Z,21.93
2022-10-03T09:06:24.676Z,21.48
2022-10-03T09:07:24.763Z,21.37
2022-10-03T09:08:24.455Z,20.97
2022-10-03T09:09:24.431Z,20.63
2022-10-03T09:10:24.425Z,20.36
2022-10-03T09:11:24.420Z,20.04
2022-10-03T09:12:24.408Z,19.74
2022-10-03T09:13:24.405Z,19.48
2022-10-03T09:14:24.378Z,19.19
2022-10-03T09:15:24.373Z,18.95
2022-10-03T09:16:24.387Z,18.78
2022-10-03T09:17:25.373Z,18.49
2022-10-03T09:18:24.340Z,18.29
2022-10-03T09:19:24.337Z,18.19
2022-10-03T09:20:24.326Z,18.03
2022-10-03T09:21:24.303Z,17.97
2022-10-03T09:22:24.339Z,17.94
2022-10-03T09:23:24.284Z,17.98
2022-10-03T09:24:24.298Z,18.01
2022-10-03T09:25:24.309Z,18.18
2022-10-03T09:26:24.260Z,18.28
2022-10-03T09:27:24.256Z,18.11
2022-10-03T09:28:25.712Z,18.08
2022-10-03T09:29:24.218Z,18.05
2022-10-03T09:30:24.222Z,18.33
2022-10-03T09:31:24.256Z,18.58
2022-10-03T09:32:24.203Z,18.66
2022-10-03T09:33:24.186Z,18.78
2022-10-03T09:34:24.189Z,18.95
2022-10-03T09:35:24.158Z,18.90
2022-10-03T09:36:24.172Z,18.98
2022-10-03T09:37:24.136Z,19.07
2022-10-03T09:38:24.982Z,19.00
2022-10-03T09:39:24.120Z,18.93
2022-10-03T09:40:24.098Z,18.84
2022-10-03T09:41:24.086Z,18.81
2022-10-03T09:42:24.094Z,18.81
2022-10-03T09:43:24.068Z,18.81
2022-10-03T09:44:24.062Z,19.31
2022-10-03T09:45:24.069Z,19.33
2022-10-03T09:46:24.112Z,19.27
2022-10-03T09:47:24.034Z,19.29
2022-10-03T09:48:24.035Z,19.29
2022-10-03T09:49:31.867Z,19.64
2022-10-03T09:50:24.002Z,19.94
2022-10-03T09:51:24.009Z,20.24
2022-10-03T09:52:23.972Z,20.58
2022-10-03T09:53:23.961Z,20.56
2022-10-03T09:54:23.989Z,20.60
2022-10-03T09:55:23.946Z,20.44
2022-10-03T09:56:23.950Z,20.31
2022-10-03T09:57:23.924Z,20.13
2022-10-03T09:58:23.912Z,20.04
2022-10-03T09:59:23.904Z,19.94
2022-10-03T10:00:23.885Z,19.77
2022-10-03T10:01:23.996Z,19.55
2022-10-03T10:02:23.868Z,19.34
2022-10-03T10:03:23.859Z,19.21
2022-10-03T10:04:43.453Z,18.93
2022-10-03T10:05:24.840Z,18.84
2022-10-03T10:06:24.983Z,18.60
2022-10-03T10:07:23.833Z,18.55
2022-10-03T10:08:23.806Z,18.34
2022-10-03T10:09:23.788Z,18.25
2022-10-03T10:10:23.813Z,18.05
2022-10-03T10:11:23.767Z,18.05
2022-10-03T10:12:23.781Z,17.90
2022-10-03T10:13:23.777Z,17.90
2022-10-03T10:14:23.742Z,17.82
2022-10-03T10:15:23.734Z,17.72
2022-10-03T10:16:23.768Z,17.85
2022-10-03T10:17:23.706Z,17.72
2022-10-03T10:18:23.702Z,18.00
2022-10-03T10:19:23.716Z,18.00
2022-10-03T10:20:23.674Z,18.03
2022-10-03T10:21:23.660Z,18.13
2022-10-03T10:22:23.647Z,18.19
2022-10-03T10:23:23.648Z,18.33
2022-10-03T10:24:23.629Z,18.53
2022-10-03T10:25:23.658Z,18.58
2022-10-03T10:26:28.631Z,18.81
2022-10-03T10:27:24.605Z,18.90
2022-10-03T10:28:23.657Z,19.07
2022-10-03T10:29:23.602Z,19.31
2022-10-03T10:30:23.594Z,19.37
2022-10-03T10:31:23.652Z,19.31
2022-10-03T10:32:23.544Z,19.16
2022-10-03T10:33:23.537Z,19.19
2022-10-03T10:34:23.518Z,19.07
2022-10-03T10:35:23.536Z,18.93
2022-10-03T10:36:23.562Z,18.96
2022-10-03T10:37:23.493Z,19.08
2022-10-03T10:38:23.488Z,18.92
2022-10-03T10:39:23.465Z,18.93
2022-10-03T10:40:23.463Z,18.92
2022-10-03T10:41:23.445Z,18.80
2022-10-03T10:42:24.007Z,18.95
2022-10-03T10:43:23.462Z,19.18
2022-10-03T10:44:23.420Z,19.11
2022-10-03T10:45:23.410Z,19.16
2022-10-03T10:46:23.523Z,19.22
2022-10-03T10:47:23.378Z,19.39
2022-10-03T10:48:23.376Z,19.51
2022-10-03T10:49:23.391Z,19.54
2022-10-03T10:50:23.348Z,19.55
2022-10-03T10:51:23.341Z,19.51
2022-10-03T10:52:23.325Z,19.58
2022-10-03T10:53:23.324Z,19.51
2022-10-03T10:54:23.306Z,19.54
2022-10-03T10:55:23.327Z,19.59
2022-10-03T10:56:23.290Z,19.55
2022-10-03T10:57:23.279Z,19.49
2022-10-03T10:58:23.331Z,19.39
2022-10-03T10:59:23.258Z,19.27
2022-10-03T11:00:23.301Z,19.31
2022-10-03T11:01:23.237Z,19.31
2022-10-03T11:02:23.227Z,19.37
2022-10-03T11:03:23.208Z,19.45
2022-10-03T11:04:23.274Z,19.47
2022-10-03T11:05:23.185Z,19.45
2022-10-03T11:06:23.175Z,19.52
2022-10-03T11:07:23.166Z,19.39
2022-10-03T11:08:23.152Z,19.37
2022-10-03T11:09:23.183Z,19.37
2022-10-03T11:10:23.158Z,19.34
2022-10-03T11:11:23.124Z,19.27
2022-10-03T11:12:23.113Z,19.27
2022-10-03T11:13:23.101Z,19.21
2022-10-03T11:14:23.143Z,19.15
2022-10-03T11:15:23.079Z,19.14
2022-10-03T11:16:23.106Z,19.11
2022-10-03T11:17:23.060Z,19.08
2022-10-03T11:18:23.059Z,19.07
2022-10-03T11:19:23.048Z,19.08
2022-10-03T11:20:23.058Z,18.92
2022-10-03T11:21:23.059Z,19.04
2022-10-03T11:22:23.009Z,19.04
2022-10-03T11:23:22.994Z,19.02
2022-10-03T11:24:22.988Z,18.95
2022-10-03T11:25:22.983Z,19.07
2022-10-03T11:26:23.021Z,19.04
2022-10-03T11:27:22.957Z,19.04
2022-10-03T11:28:26.910Z,18.96
2022-10-03T11:29:22.926Z,18.98
2022-10-03T11:30:22.966Z,18.88
2022-10-03T11:31:22.992Z,18.74
2022-10-03T11:32:22.907Z,18.80
2022-10-03T11:33:22.907Z,18.63
2022-10-03T11:34:22.884Z,18.40
2022-10-03T11:35:22.865Z,18.23
2022-10-03T11:36:22.888Z,18.13
2022-10-03T11:37:22.877Z,18.13
2022-10-03T11:38:22.836Z,18.18
2022-10-03T11:39:22.828Z,18.20
2022-10-03T11:40:22.811Z,18.18
2022-10-03T11:41:22.797Z,18.08
2022-10-03T11:42:22.831Z,18.03
2022-10-03T11:43:22.785Z,18.20
2022-10-03T11:44:22.767Z,18.19
2022-10-03T11:45:22.778Z,18.20
2022-10-03T11:46:22.771Z,18.22
2022-10-03T11:47:22.772Z,18.22
2022-10-03T11:48:22.729Z,18.23
2022-10-03T11:49:22.708Z,18.22
2022-10-03T11:50:22.713Z,18.34
2022-10-03T11:51:22.704Z,18.33
2022-10-03T11:52:22.685Z,18.47
2022-10-03T11:53:22.700Z,18.35
2022-10-03T11:54:32.596Z,18.45
2022-10-03T11:55:23.676Z,18.34
2022-10-03T11:56:22.763Z,18.25
2022-10-03T11:57:22.626Z,18.26
2022-10-03T11:58:22.626Z,18.28
2022-10-03T11:59:26.616Z,18.31
2022-10-03T12:00:22.624Z,18.26
2022-10-03T12:01:24.402Z,18.34
2022-10-03T12:02:22.765Z,18.26
2022-10-03T12:03:22.648Z,18.15
2022-10-03T12:04:22.549Z,18.18
2022-10-03T12:05:22.542Z,18.04
2022-10-03T12:06:22.540Z,18.04
2022-10-03T12:07:22.525Z,18.05
2022-10-03T12:08:22.512Z,18.03
2022-10-03T12:09:22.533Z,18.04
2022-10-03T12:10:22.503Z,18.01
2022-10-03T12:11:22.478Z,18.03
2022-10-03T12:12:22.488Z,18.05
2022-10-03T12:13:22.452Z,18.08
2022-10-03T12:14:22.451Z,18.16
2022-10-03T12:15:22.509Z,18.16
2022-10-03T12:16:22.495Z,18.23
2022-10-03T12:17:22.416Z,18.37
2022-10-03T12:18:22.435Z,18.41
2022-10-03T12:19:22.391Z,18.55
2022-10-03T12:20:22.375Z,18.44
2022-10-03T12:21:22.416Z,18.38
2022-10-03T12:22:22.367Z,18.37
2022-10-03T12:23:22.358Z,18.28
2022-10-03T12:24:22.344Z,18.31
2022-10-03T12:25:22.325Z,18.37
2022-10-03T12:26:22.352Z,18.43
2022-10-03T12:27:22.336Z,18.29
2022-10-03T12:28:22.450Z,18.28
2022-10-03T12:29:22.298Z,18.28
2022-10-03T12:30:22.279Z,18.22
2022-10-03T12:31:22.299Z,18.18
2022-10-03T12:32:22.278Z,18.19
2022-10-03T12:33:22.265Z,18.13
2022-10-03T12:34:22.251Z,18.18
2022-10-03T12:35:22.258Z,18.04
2022-10-03T12:36:22.206Z,18.00
2022-10-03T12:37:22.249Z,18.04
2022-10-03T12:38:22.192Z,18.05
2022-10-03T12:39:22.182Z,18.05
2022-10-03T12:40:22.229Z,18.25
2022-10-03T12:41:22.180Z,18.43
2022-10-03T12:42:22.148Z,18.52
2022-10-03T12:43:22.161Z,18.41
2022-10-03T12:44:22.125Z,18.38
2022-10-03T12:45:22.107Z,18.34
2022-10-03T12:46:22.159Z,18.26
2022-10-03T12:47:43.616Z,18.34
2022-10-03T12:48:23.104Z,18.26
2022-10-03T12:49:22.074Z,18.37
2022-10-03T12:50:22.079Z,18.33
2022-10-03T12:51:22.057Z,18.33
2022-10-03T12:52:22.062Z,18.35